createdAt,value
2022-12-19T00:01:32.583Z,101579.53
2022-12-19T00:04:01.320Z,101582.53
2022-12-19T00:06:29.319Z,101585.63
2022-12-19T00:08:58.765Z,101584.44
2022-12-19T00:11:26.543Z,101590.34
2022-12-19T00:13:53.106Z,101593.16
2022-12-19T00:16:22.968Z,101583.34
2022-12-19T00:18:51.040Z,101578.25
2022-12-19T00:21:23.854Z,101571.25
2022-12-19T00:23:51.040Z,101578.53
2022-12-19T00:26:24.741Z,101578.34
2022-12-19T00:28:54.319Z,101573.75
2022-12-19T00:31:22.333Z,101563.88
2022-12-19T00:33:49.517Z,101559.50
2022-12-19T00:36:23.114Z,101562.38
2022-12-19T00:38:51.669Z,101564.59
2022-12-19T00:41:21.670Z,101559.34
2022-12-19T00:43:52.469Z,101564.13
2022-12-19T00:46:19.025Z,101560.44
2022-12-19T00:48:45.540Z,101561.91
2022-12-19T00:51:17.453Z,101566.50
2022-12-19T00:53:45.545Z,101565.00
2022-12-19T00:56:19.023Z,101564.72
2022-12-19T00:58:47.411Z,101562.94
2022-12-19T01:01:20.716Z,101571.44
2022-12-19T01:04:11.286Z,101565.53
2022-12-19T01:06:34.726Z,101565.75
2022-12-19T01:09:01.455Z,101561.31
2022-12-19T01:11:46.790Z,101561.38
2022-12-19T01:14:20.728Z,101566.38
2022-12-19T01:16:49.118Z,101556.88
2022-12-19T01:19:15.754Z,101562.13
2022-12-19T01:21:42.311Z,101571.06
2022-12-19T01:24:09.484Z,101566.75
2022-12-19T01:26:35.997Z,101557.25
2022-12-19T01:29:02.540Z,101563.78
2022-12-19T01:31:29.136Z,101573.19
2022-12-19T01:33:55.633Z,101570.34
2022-12-19T01:36:22.144Z,101562.94
2022-12-19T01:38:48.743Z,101558.19
2022-12-19T01:41:15.264Z,101560.03
2022-12-19T01:43:55.655Z,101548.19
2022-12-19T01:46:27.723Z,101541.69
2022-12-19T01:48:56.516Z,101541.22
2022-12-19T01:51:25.488Z,101541.88
2022-12-19T01:53:57.598Z,101545.97
2022-12-19T01:56:34.274Z,101535.03
2022-12-19T01:59:07.068Z,101539.31
2022-12-19T02:01:35.081Z,101531.84
2022-12-19T02:04:03.429Z,101541.22
2022-12-19T02:06:31.673Z,101544.72
2022-12-19T02:08:58.260Z,101527.09
2022-12-19T02:11:24.773Z,101521.34
2022-12-19T02:13:51.377Z,101519.38
2022-12-19T02:16:24.272Z,101524.56
2022-12-19T02:19:00.300Z,101524.06
2022-12-19T02:21:45.304Z,101528.28
2022-12-19T02:24:55.393Z,101530.81
2022-12-19T02:27:51.932Z,101509.88
2022-12-19T02:30:53.399Z,101515.75
2022-12-19T02:33:24.987Z,101507.03
2022-12-19T02:35:54.691Z,101502.00
2022-12-19T02:38:48.167Z,101498.06
2022-12-19T02:41:30.614Z,101500.91
2022-12-19T02:43:58.967Z,101492.38
2022-12-19T02:46:28.250Z,101485.31
2022-12-19T02:48:55.307Z,101477.44
2022-12-19T02:51:21.844Z,101501.22
2022-12-19T02:53:48.443Z,101496.59
2022-12-19T02:56:25.633Z,101499.09
2022-12-19T02:59:09.565Z,101493.81
2022-12-19T03:01:45.673Z,101490.41
2022-12-19T03:04:21.149Z,101478.16
2022-12-19T03:07:04.070Z,101464.31
2022-12-19T03:09:48.392Z,101462.63
2022-12-19T03:12:23.694Z,101475.56
2022-12-19T03:14:52.074Z,101473.09
2022-12-19T03:17:18.660Z,101466.16
2022-12-19T03:19:46.082Z,101477.00
2022-12-19T03:22:12.910Z,101479.63
2022-12-19T03:24:39.869Z,101474.00
2022-12-19T03:27:12.695Z,101475.78
2022-12-19T03:29:50.046Z,101468.16
2022-12-19T03:32:18.289Z,101470.13
2022-12-19T03:34:52.288Z,101473.88
2022-12-19T03:37:22.235Z,101472.69
2022-12-19T03:39:52.650Z,101467.59
2022-12-19T03:42:39.522Z,101470.84
2022-12-19T03:45:07.247Z,101475.81
2022-12-19T03:47:42.064Z,101472.41
2022-12-19T03:50:10.465Z,101468.59
2022-12-19T03:52:46.239Z,101460.19
2022-12-19T03:55:19.309Z,101471.41
2022-12-19T03:57:58.094Z,101473.16
2022-12-19T04:00:25.588Z,101470.25
2022-12-19T04:02:55.764Z,101467.59
2022-12-19T04:05:24.867Z,101466.72
2022-12-19T04:07:55.384Z,101471.81
2022-12-19T04:10:24.704Z,101460.81
2022-12-19T04:12:56.958Z,101468.78
2022-12-19T04:15:34.827Z,101459.69
2022-12-19T04:18:04.972Z,101456.50
2022-12-19T04:20:33.655Z,101455.41
2022-12-19T04:23:06.648Z,101451.31
2022-12-19T04:25:37.763Z,101448.81
2022-12-19T04:28:09.541Z,101448.66
2022-12-19T04:30:38.292Z,101447.63
2022-12-19T04:33:05.044Z,101462.31
2022-12-19T04:35:31.635Z,101441.69
2022-12-19T04:37:58.221Z,101429.72
2022-12-19T04:40:24.740Z,101441.59
2022-12-19T04:42:51.338Z,101439.88
2022-12-19T04:45:18.016Z,101430.63
2022-12-19T04:47:46.053Z,101424.22
2022-12-19T04:50:12.512Z,101430.00
2022-12-19T04:52:39.094Z,101431.72
2022-12-19T04:55:06.186Z,101424.97
2022-12-19T04:57:32.740Z,101432.44
2022-12-19T04:59:59.302Z,101425.47
2022-12-19T05:02:26.083Z,101426.97
2022-12-19T05:04:52.700Z,101422.81
2022-12-19T05:07:19.218Z,101425.16
2022-12-19T05:09:45.739Z,101419.16
2022-12-19T05:12:12.268Z,101430.56
2022-12-19T05:14:38.848Z,101418.69
2022-12-19T05:17:05.334Z,101427.09
2022-12-19T05:19:31.805Z,101423.44
2022-12-19T05:21:58.906Z,101431.59
2022-12-19T05:24:25.440Z,101428.47
2022-12-19T05:26:51.948Z,101433.75
2022-12-19T05:29:18.527Z,101420.50
2022-12-19T05:31:45.104Z,101421.91
2022-12-19T05:34:11.767Z,101423.97
2022-12-19T05:36:38.628Z,101421.38
2022-12-19T05:39:05.296Z,101428.53
2022-12-19T05:41:31.926Z,101429.25
2022-12-19T05:43:58.430Z,101437.38
2022-12-19T05:46:25.483Z,101430.81
2022-12-19T05:48:52.021Z,101426.75
2022-12-19T05:51:18.967Z,101425.31
2022-12-19T05:53:45.552Z,101418.34
2022-12-19T05:56:15.189Z,101423.53
2022-12-19T05:58:42.616Z,101426.31
2022-12-19T06:01:15.850Z,101421.78
2022-12-19T06:03:42.402Z,101408.72
2022-12-19T06:06:11.733Z,101426.44
2022-12-19T06:08:38.807Z,101417.66
2022-12-19T06:11:07.825Z,101419.44
2022-12-19T06:13:35.518Z,101418.66
2022-12-19T06:16:12.949Z,101417.31
2022-12-19T06:18:44.447Z,101415.16
2022-12-19T06:21:23.298Z,101428.81
2022-12-19T06:23:50.347Z,101435.38
2022-12-19T06:26:20.193Z,101440.28
2022-12-19T06:28:52.085Z,101426.88
2022-12-19T06:31:20.880Z,101428.25
2022-12-19T06:33:47.643Z,101432.13
2022-12-19T06:36:20.713Z,101427.41
2022-12-19T06:38:48.078Z,101420.38
2022-12-19T06:41:33.710Z,101424.78
2022-12-19T06:44:01.355Z,101429.38
2022-12-19T06:46:28.642Z,101412.91
2022-12-19T06:48:55.179Z,101422.31
2022-12-19T06:51:22.408Z,101433.88
2022-12-19T06:53:49.093Z,101423.56
2022-12-19T06:56:16.520Z,101423.53
2022-12-19T06:58:43.136Z,101423.84
2022-12-19T07:01:18.173Z,101410.66
2022-12-19T07:03:46.667Z,101413.53
2022-12-19T07:06:13.450Z,101413.13
2022-12-19T07:08:39.967Z,101418.13
2022-12-19T07:11:06.582Z,101420.72
2022-12-19T07:13:33.107Z,101410.44
2022-12-19T07:16:02.186Z,101403.47
2022-12-19T07:18:31.841Z,101404.75
2022-12-19T07:20:58.381Z,101408.69
2022-12-19T07:23:24.958Z,101407.13
2022-12-19T07:25:51.513Z,101407.94
2022-12-19T07:28:18.460Z,101411.09
2022-12-19T07:30:45.145Z,101415.22
2022-12-19T07:33:13.602Z,101417.09
2022-12-19T07:35:43.485Z,101415.25
2022-12-19T07:38:10.034Z,101417.59
2022-12-19T07:40:36.547Z,101416.81
2022-12-19T07:43:05.569Z,101414.69
2022-12-19T07:45:33.213Z,101421.53
2022-12-19T07:48:01.387Z,101428.63
2022-12-19T07:50:28.944Z,101422.56
2022-12-19T07:52:55.734Z,101424.13
2022-12-19T07:55:22.285Z,101432.28
2022-12-19T07:57:48.913Z,101421.00
2022-12-19T08:00:15.705Z,101419.19
2022-12-19T08:02:43.080Z,101417.34
2022-12-19T08:05:11.409Z,101416.31
2022-12-19T08:07:37.943Z,101423.34
2022-12-19T08:10:06.630Z,101420.22
2022-12-19T08:12:33.893Z,101425.47
2022-12-19T08:15:00.450Z,101415.50
2022-12-19T08:17:27.013Z,101416.03
2022-12-19T08:19:53.609Z,101425.72
2022-12-19T08:22:20.259Z,101415.78
2022-12-19T08:24:46.862Z,101417.88
2022-12-19T08:27:13.344Z,101430.97
2022-12-19T08:29:39.905Z,101423.66
2022-12-19T08:32:06.428Z,101420.50
2022-12-19T08:34:32.940Z,101419.97
2022-12-19T08:36:59.526Z,101416.53
2022-12-19T08:39:26.061Z,101415.75
2022-12-19T08:41:52.544Z,101412.56
2022-12-19T08:44:19.127Z,101405.25
2022-12-19T08:46:49.933Z,101409.72
2022-12-19T08:49:17.457Z,101420.19
2022-12-19T08:51:44.004Z,101407.38
2022-12-19T08:54:12.160Z,101415.19
2022-12-19T08:56:45.319Z,101407.56
2022-12-19T08:59:19.322Z,101391.63
2022-12-19T09:01:57.497Z,101398.91
2022-12-19T09:06:00.115Z,101403.56
2022-12-19T09:07:10.995Z,101409.41
2022-12-19T09:09:37.510Z,101414.91
2022-12-19T09:12:04.026Z,101403.38
2022-12-19T09:14:34.934Z,101411.50
2022-12-19T09:17:01.628Z,101416.22
2022-12-19T09:19:30.460Z,101410.19
2022-12-19T09:21:56.950Z,101417.31
2022-12-19T09:24:24.794Z,101413.66
2022-12-19T09:26:57.397Z,101417.81
2022-12-19T09:29:32.211Z,101418.84
2022-12-19T09:32:04.634Z,101419.81
2022-12-19T09:34:37.970Z,101412.56
2022-12-19T09:37:15.940Z,101398.94
2022-12-19T09:39:46.152Z,101398.88
2022-12-19T09:42:21.454Z,101402.97
2022-12-19T09:45:18.818Z,101406.09
2022-12-19T09:47:59.087Z,101412.38
2022-12-19T09:50:58.604Z,101405.38
2022-12-19T09:54:01.453Z,101409.09
2022-12-19T09:56:40.203Z,101411.97
2022-12-19T09:59:22.606Z,101397.88
2022-12-19T10:02:04.222Z,101405.38
2022-12-19T10:04:36.099Z,101411.34
2022-12-19T10:07:18.676Z,101394.09
2022-12-19T10:11:38.652Z,101395.94
2022-12-19T10:13:04.941Z,101396.06
2022-12-19T10:15:59.025Z,101390.94
2022-12-19T10:18:56.045Z,101394.81
2022-12-19T10:21:58.968Z,101397.16
2022-12-19T10:24:41.201Z,101388.94
2022-12-19T10:27:31.338Z,101378.75
2022-12-19T10:30:22.416Z,101378.88
2022-12-19T10:33:20.157Z,101376.22
2022-12-19T10:35:54.331Z,101370.84
2022-12-19T10:38:52.192Z,101364.50
2022-12-19T10:41:28.734Z,101357.94
2022-12-19T10:43:58.937Z,101362.91
2022-12-19T10:46:38.080Z,101362.16
2022-12-19T10:49:19.231Z,101368.56
2022-12-19T10:52:03.981Z,101362.66
2022-12-19T10:54:43.549Z,101369.34
2022-12-19T10:57:26.348Z,101368.00
2022-12-19T11:00:06.283Z,101366.03
2022-12-19T11:02:40.084Z,101364.94
2022-12-19T11:05:28.883Z,101353.03
2022-12-19T11:08:03.890Z,101346.69
2022-12-19T11:11:47.776Z,101339.81
2022-12-19T11:17:19.982Z,101325.88
2022-12-19T11:23:14.463Z,101317.66
2022-12-19T11:29:42.002Z,101322.31
2022-12-19T11:30:09.322Z,101316.53
2022-12-19T11:30:42.985Z,101312.97
2022-12-19T11:30:44.125Z,101316.88
2022-12-19T11:34:07.218Z,101315.28
2022-12-19T11:37:14.401Z,101319.59
2022-12-19T11:40:18.913Z,101311.91
2022-12-19T11:43:43.242Z,101310.63
2022-12-19T11:46:04.410Z,101300.69
2022-12-19T11:48:39.952Z,101300.22
2022-12-19T11:51:17.303Z,101288.03
2022-12-19T11:54:13.964Z,101301.25
2022-12-19T11:56:40.469Z,101294.28
2022-12-19T11:59:18.547Z,101291.59
2022-12-19T12:02:06.714Z,101285.66
2022-12-19T12:05:07.878Z,101284.53
2022-12-19T12:09:15.692Z,101281.31
2022-12-19T12:15:56.913Z,101271.25
2022-12-19T12:22:34.770Z,101274.84
2022-12-19T12:29:39.809Z,101268.78
2022-12-19T12:31:14.478Z,101278.22
2022-12-19T12:31:23.448Z,101267.00
2022-12-19T12:31:52.923Z,101265.53
2022-12-19T12:32:06.316Z,101263.34
2022-12-19T12:35:40.781Z,101254.41
2022-12-19T12:40:47.801Z,101243.56
2022-12-19T12:43:38.803Z,101230.44
2022-12-19T12:46:13.467Z,101235.75
2022-12-19T12:49:05.481Z,101244.22
2022-12-19T12:51:33.942Z,101236.41
2022-12-19T12:54:07.724Z,101238.63
2022-12-19T12:56:36.422Z,101241.22
2022-12-19T12:59:19.181Z,101245.91
2022-12-19T13:01:50.822Z,101242.84
2022-12-19T13:04:40.126Z,101244.09
2022-12-19T13:07:19.555Z,101246.13
2022-12-19T13:09:53.460Z,101235.38
2022-12-19T13:12:55.377Z,101239.63
2022-12-19T13:15:21.968Z,101244.69
2022-12-19T13:17:48.940Z,101223.31
2022-12-19T13:20:18.754Z,101226.09
2022-12-19T13:23:02.728Z,101231.63
2022-12-19T13:25:32.400Z,101227.53
2022-12-19T13:28:15.519Z,101224.19
2022-12-19T13:31:21.228Z,101222.91
2022-12-19T13:33:51.548Z,101220.84
2022-12-19T13:39:54.905Z,101214.78
2022-12-19T13:40:07.493Z,101217.44
2022-12-19T13:43:10.019Z,101225.16
2022-12-19T13:45:40.482Z,101218.72
2022-12-19T13:48:16.081Z,101225.13
2022-12-19T13:50:47.602Z,101229.78
2022-12-19T13:53:22.877Z,101215.03
2022-12-19T13:55:49.516Z,101219.53
2022-12-19T13:58:29.754Z,101209.34
2022-12-19T14:01:02.423Z,101211.47
2022-12-19T14:03:41.992Z,101226.16
2022-12-19T14:06:19.997Z,101223.97
2022-12-19T14:10:19.956Z,101204.19
2022-12-19T14:12:18.290Z,101210.25
2022-12-19T14:14:49.267Z,101195.84
2022-12-19T14:17:35.793Z,101194.63
2022-12-19T14:22:06.789Z,101193.22
2022-12-19T14:23:04.862Z,101196.69
2022-12-19T14:28:15.282Z,101219.44
2022-12-19T14:28:50.682Z,101215.22
2022-12-19T14:31:22.115Z,101214.66
2022-12-19T14:34:11.622Z,101208.25
2022-12-19T14:36:39.913Z,101202.72
2022-12-19T14:39:25.330Z,101205.19
2022-12-19T14:42:13.786Z,101202.38
2022-12-19T14:52:34.837Z,101201.94
2022-12-19T14:54:03.751Z,101208.34
2022-12-19T14:54:16.796Z,101206.31
2022-12-19T14:54:31.034Z,101208.56
2022-12-19T14:59:00.808Z,101196.78
2022-12-19T15:01:31.026Z,101201.94
2022-12-19T15:04:52.259Z,101207.09
2022-12-19T15:07:07.550Z,101203.31
2022-12-19T15:11:00.784Z,101196.69
2022-12-19T15:14:46.967Z,101191.53
2022-12-19T15:16:03.995Z,101189.78
2022-12-19T15:18:36.345Z,101183.91
2022-12-19T15:21:14.615Z,101205.28
2022-12-19T15:23:45.144Z,101197.22
2022-12-19T15:26:14.879Z,101187.47
2022-12-19T15:28:47.359Z,101179.88
2022-12-19T15:31:38.894Z,101176.03
2022-12-19T15:34:44.354Z,101176.81
2022-12-19T15:37:16.472Z,101165.47
2022-12-19T15:39:44.248Z,101166.59
2022-12-19T15:42:20.104Z,101172.31
2022-12-19T15:44:48.192Z,101180.41
2022-12-19T15:47:26.016Z,101176.50
2022-12-19T15:49:52.520Z,101167.69
2022-12-19T15:52:20.731Z,101174.28
2022-12-19T15:54:50.311Z,101185.88
2022-12-19T15:57:38.824Z,101187.25
2022-12-19T16:00:16.801Z,101171.97
2022-12-19T16:03:21.259Z,101166.34
2022-12-19T16:05:29.948Z,101151.38
2022-12-19T16:07:59.386Z,101154.06
2022-12-19T16:10:26.625Z,101155.09
2022-12-19T16:12:55.561Z,101155.63
2022-12-19T16:15:33.602Z,101164.00
2022-12-19T16:18:03.050Z,101154.66
2022-12-19T16:20:39.459Z,101148.75
2022-12-19T16:23:07.146Z,101157.53
2022-12-19T16:25:45.785Z,101156.19
2022-12-19T16:28:21.949Z,101151.78
2022-12-19T16:30:50.294Z,101142.50
2022-12-19T16:33:35.005Z,101133.84
2022-12-19T16:36:04.529Z,101129.44
2022-12-19T16:38:33.242Z,101133.59
2022-12-19T16:41:01.466Z,101131.81
2022-12-19T16:43:31.938Z,101131.03
2022-12-19T16:46:01.518Z,101136.03
2022-12-19T16:48:32.243Z,101132.88
2022-12-19T16:50:59.266Z,101137.94
2022-12-19T16:53:26.181Z,101128.78
2022-12-19T16:55:54.513Z,101125.66
2022-12-19T16:58:24.444Z,101125.13
2022-12-19T17:00:54.720Z,101138.84
2022-12-19T17:03:33.489Z,101142.53
2022-12-19T17:06:00.549Z,101142.84
2022-12-19T17:08:27.197Z,101136.31
2022-12-19T17:10:54.428Z,101147.03
2022-12-19T17:13:22.239Z,101141.28
2022-12-19T17:15:55.986Z,101148.28
2022-12-19T17:18:35.539Z,101156.31
2022-12-19T17:21:02.091Z,101161.03
2022-12-19T17:23:30.502Z,101154.00
2022-12-19T17:25:57.935Z,101163.09
2022-12-19T17:28:24.459Z,101160.72
2022-12-19T17:30:53.345Z,101147.69
2022-12-19T17:33:28.337Z,101173.06
2022-12-19T17:35:54.840Z,101163.88
2022-12-19T17:38:21.448Z,101155.13
2022-12-19T17:40:48.020Z,101140.50
2022-12-19T17:43:14.524Z,101134.78
2022-12-19T17:45:41.686Z,101136.25
2022-12-19T17:48:36.196Z,101143.81
2022-12-19T17:51:02.926Z,101132.69
2022-12-19T17:53:29.517Z,101136.84
2022-12-19T17:55:55.999Z,101137.63
2022-12-19T17:58:22.591Z,101139.19
2022-12-19T18:00:49.801Z,101135.78
2022-12-19T18:03:26.602Z,101142.75
2022-12-19T18:05:58.024Z,101128.84
2022-12-19T18:08:30.199Z,101133.47
2022-12-19T18:10:59.496Z,101118.91
2022-12-19T18:13:27.238Z,101120.47
2022-12-19T18:15:57.320Z,101118.63
2022-12-19T18:18:28.920Z,101112.09
2022-12-19T18:20:55.647Z,101111.94
2022-12-19T18:23:23.497Z,101111.56
2022-12-19T18:25:53.565Z,101102.94
2022-12-19T18:28:24.319Z,101096.53
2022-12-19T18:30:52.446Z,101102.00
2022-12-19T18:33:23.940Z,101083.59
2022-12-19T18:35:51.413Z,101089.81
2022-12-19T18:38:21.342Z,101094.09
2022-12-19T18:40:49.339Z,101095.63
2022-12-19T18:43:16.970Z,101104.63
2022-12-19T18:45:50.922Z,101111.97
2022-12-19T18:48:26.804Z,101109.44
2022-12-19T18:50:55.186Z,101104.75
2022-12-19T18:53:27.396Z,101082.44
2022-12-19T18:55:56.346Z,101108.44
2022-12-19T18:58:22.880Z,101113.19
2022-12-19T19:00:52.998Z,101115.28
2022-12-19T19:03:26.554Z,101120.53
2022-12-19T19:05:54.455Z,101120.25
2022-12-19T19:08:24.658Z,101124.75
2022-12-19T19:10:52.538Z,101122.38
2022-12-19T19:13:21.013Z,101126.06
2022-12-19T19:15:50.899Z,101114.31
2022-12-19T19:18:22.136Z,101114.94
2022-12-19T19:20:57.150Z,101107.31
2022-12-19T19:23:30.577Z,101100.25
2022-12-19T19:25:57.206Z,101110.81
2022-12-19T19:28:23.701Z,101107.34
2022-12-19T19:30:51.601Z,101116.25
2022-12-19T19:33:24.879Z,101114.41
2022-12-19T19:35:55.761Z,101116.19
2022-12-19T19:38:23.485Z,101123.03
2022-12-19T19:40:50.747Z,101128.53
2022-12-19T19:43:17.268Z,101124.03
2022-12-19T19:45:44.044Z,101117.50
2022-12-19T19:48:10.847Z,101118.78
2022-12-19T19:50:38.139Z,101126.84
2022-12-19T19:53:04.803Z,101113.81
2022-12-19T19:55:31.400Z,101105.00
2022-12-19T19:57:58.026Z,101106.03
2022-12-19T20:00:24.853Z,101111.81
2022-12-19T20:02:51.554Z,101106.94
2022-12-19T20:05:18.512Z,101118.91
2022-12-19T20:07:45.115Z,101118.69
2022-12-19T20:10:12.313Z,101122.91
2022-12-19T20:12:39.529Z,101116.56
2022-12-19T20:15:06.666Z,101124.88
2022-12-19T20:17:33.195Z,101136.66
2022-12-19T20:20:00.122Z,101134.78
2022-12-19T20:22:26.666Z,101120.13
2022-12-19T20:24:53.903Z,101133.16
2022-12-19T20:27:20.590Z,101128.59
2022-12-19T20:29:47.133Z,101125.16
2022-12-19T20:32:14.970Z,101126.91
2022-12-19T20:34:41.520Z,101133.53
2022-12-19T20:37:08.031Z,101128.53
2022-12-19T20:39:34.730Z,101150.25
2022-12-19T20:42:01.440Z,101162.09
2022-12-19T20:44:28.123Z,101161.09
2022-12-19T20:46:54.791Z,101145.94
2022-12-19T20:49:23.116Z,101149.22
2022-12-19T20:51:49.642Z,101140.13
2022-12-19T20:54:16.447Z,101139.19
2022-12-19T20:56:43.075Z,101134.19
2022-12-19T20:59:10.276Z,101130.75
2022-12-19T21:01:38.133Z,101138.72
2022-12-19T21:04:05.199Z,101140.78
2022-12-19T21:06:32.277Z,101137.16
2022-12-19T21:08:58.866Z,101130.78
2022-12-19T21:11:27.506Z,101139.28
2022-12-19T21:13:54.347Z,101136.34
2022-12-19T21:16:22.704Z,101147.25
2022-12-19T21:18:50.964Z,101143.72
2022-12-19T21:21:21.785Z,101137.31
2022-12-19T21:23:48.533Z,101142.28
2022-12-19T21:26:15.292Z,101137.81
2022-12-19T21:28:42.476Z,101133.91
2022-12-19T21:31:15.101Z,101142.50
2022-12-19T21:33:42.083Z,101142.78
2022-12-19T21:36:11.488Z,101150.66
2022-12-19T21:38:38.373Z,101140.09
2022-12-19T21:41:06.934Z,101134.19
2022-12-19T21:43:35.213Z,101125.13
2022-12-19T21:46:11.692Z,101125.53
2022-12-19T21:48:39.879Z,101125.22
2022-12-19T21:51:07.571Z,101131.13
2022-12-19T21:53:35.404Z,101139.75
2022-12-19T21:56:26.510Z,101135.66
2022-12-19T21:58:56.375Z,101129.88
2022-12-19T22:01:23.899Z,101125.84
2022-12-19T22:03:51.461Z,101123.88
2022-12-19T22:06:27.359Z,101124.38
2022-12-19T22:08:55.793Z,101125.38
2022-12-19T22:11:22.865Z,101114.88
2022-12-19T22:13:49.890Z,101113.47
2022-12-19T22:16:17.123Z,101116.88
2022-12-19T22:18:44.330Z,101106.16
2022-12-19T22:21:13.229Z,101104.31
2022-12-19T22:23:39.860Z,101111.09
2022-12-19T22:26:14.725Z,101112.56
2022-12-19T22:28:44.603Z,101107.09
2022-12-19T22:31:26.064Z,101109.88
2022-12-19T22:33:55.030Z,101112.22
2022-12-19T22:36:28.019Z,101112.97
2022-12-19T22:38:56.471Z,101112.31
2022-12-19T22:41:23.423Z,101104.50
2022-12-19T22:43:50.162Z,101105.66
2022-12-19T22:46:20.172Z,101099.13
2022-12-19T22:48:48.158Z,101100.03
2022-12-19T22:51:16.013Z,101110.97
2022-12-19T22:53:43.484Z,101107.13
2022-12-19T22:56:18.530Z,101099.00
2022-12-19T22:58:47.583Z,101101.38
2022-12-19T23:01:28.594Z,101095.19
2022-12-19T23:03:56.872Z,101090.88
2022-12-19T23:06:25.467Z,101086.22
2022-12-19T23:08:52.483Z,101084.88
2022-12-19T23:11:26.116Z,101096.56
2022-12-19T23:13:52.655Z,101079.97
2022-12-19T23:16:19.322Z,101086.44
2022-12-19T23:18:46.171Z,101081.41
2022-12-19T23:21:18.142Z,101070.91
2022-12-19T23:23:46.461Z,101079.56
2022-12-19T23:26:21.930Z,101076.81
2022-12-19T23:28:56.829Z,101067.56
2022-12-19T23:31:24.042Z,101066.19
2022-12-19T23:33:51.070Z,101079.97
2022-12-19T23:36:32.382Z,101083.91
2022-12-19T23:39:04.379Z,101081.50
2022-12-19T23:41:31.070Z,101086.94
2022-12-19T23:43:57.662Z,101089.31
2022-12-19T23:46:27.295Z,101081.78
2022-12-19T23:48:53.964Z,101083.59
2022-12-19T23:51:22.985Z,101088.06
2022-12-19T23:53:49.961Z,101081.50
2022-12-19T23:56:28.161Z,101067.84
2022-12-19T23:58:55.951Z,101073.94
